sensor_id;sensor_type;location;lat;lon;timestamp;pressure;altitude;pressure_sealevel;temperature;humidity
61035;BME280;46916;40.564;-7.958;2024-03-08T00:00:41;95979.94;;;7.49;100.00
61035;BME280;46916;40.564;-7.958;2024-03-08T00:02:43;95981.56;;;7.50;100.00
61035;BME280;46916;40.564;-7.958;2024-03-08T00:04:43;95976.34;;;7.50;100.00
61035;BME280;46916;40.564;-7.958;2024-03-08T00:06:45;95977.06;;;7.52;100.00
61035;BME280;46916;40.564;-7.958;2024-03-08T00:08:46;95970.88;;;7.53;100.00
61035;BME280;46916;40.564;-7.958;2024-03-08T00:10:47;95970.06;;;7.52;100.00
61035;BME280;46916;40.564;-7.958;2024-03-08T00:12:47;95968.25;;;7.53;100.00
61035;BME280;46916;40.564;-7.958;2024-03-08T00:14:48;95962.34;;;7.51;100.00
61035;BME280;46916;40.564;-7.958;2024-03-08T00:16:48;95953.88;;;7.49;100.00
61035;BME280;46916;40.564;-7.958;2024-03-08T00:18:49;95956.66;;;7.47;100.00
61035;BME280;46916;40.564;-7.958;2024-03-08T00:20:49;95965.41;;;7.46;100.00
61035;BME280;46916;40.564;-7.958;2024-03-08T00:22:51;95954.47;;;7.42;100.00
61035;BME280;46916;40.564;-7.958;2024-03-08T00:24:51;95960.91;;;7.38;100.00
61035;BME280;46916;40.564;-7.958;2024-03-08T00:26:52;95959.44;;;7.36;100.00
61035;BME280;46916;40.564;-7.958;2024-03-08T00:28:54;95955.22;;;7.35;100.00
61035;BME280;46916;40.564;-7.958;2024-03-08T00:30:54;95953.44;;;7.35;100.00
61035;BME280;46916;40.564;-7.958;2024-03-08T00:32:55;95942.19;;;7.35;100.00
61035;BME280;46916;40.564;-7.958;2024-03-08T00:34:55;95955.06;;;7.36;100.00
61035;BME280;46916;40.564;-7.958;2024-03-08T00:36:56;95953.09;;;7.38;100.00
61035;BME280;46916;40.564;-7.958;2024-03-08T00:38:57;95951.34;;;7.39;100.00
61035;BME280;46916;40.564;-7.958;2024-03-08T00:40:57;95952.28;;;7.38;100.00
61035;BME280;46916;40.564;-7.958;2024-03-08T00:42:58;95948.34;;;7.34;100.00
61035;BME280;46916;40.564;-7.958;2024-03-08T00:44:58;95946.44;;;7.36;100.00
61035;BME280;46916;40.564;-7.958;2024-03-08T00:46:59;95954.25;;;7.36;100.00
61035;BME280;46916;40.564;-7.958;2024-03-08T00:48:59;95955.88;;;7.37;100.00
61035;BME280;46916;40.564;-7.958;2024-03-08T00:51:01;95943.00;;;7.35;100.00
61035;BME280;46916;40.564;-7.958;2024-03-08T00:53:02;95935.31;;;7.34;100.00
61035;BME280;46916;40.564;-7.958;2024-03-08T00:55:04;95919.03;;;7.32;100.00
61035;BME280;46916;40.564;-7.958;2024-03-08T00:57:05;95917.41;;;7.31;100.00
61035;BME280;46916;40.564;-7.958;2024-03-08T00:59:06;95918.66;;;7.27;100.00
61035;BME280;46916;40.564;-7.958;2024-03-08T01:01:07;95917.97;;;7.25;100.00
61035;BME280;46916;40.564;-7.958;2024-03-08T01:03:08;95925.94;;;7.23;100.00
61035;BME280;46916;40.564;-7.958;2024-03-08T01:05:11;95931.81;;;7.25;100.00
61035;BME280;46916;40.564;-7.958;2024-03-08T01:07:11;95925.22;;;7.31;100.00
61035;BME280;46916;40.564;-7.958;2024-03-08T01:09:12;95926.41;;;7.36;100.00
61035;BME280;46916;40.564;-7.958;2024-03-08T01:11:13;95925.00;;;7.42;100.00
61035;BME280;46916;40.564;-7.958;2024-03-08T01:13:14;95924.84;;;7.43;100.00
61035;BME280;46916;40.564;-7.958;2024-03-08T01:15:14;95924.41;;;7.48;100.00
61035;BME280;46916;40.564;-7.958;2024-03-08T01:17:15;95920.84;;;7.49;100.00
61035;BME280;46916;40.564;-7.958;2024-03-08T01:19:15;95915.78;;;7.48;100.00
61035;BME280;46916;40.564;-7.958;2024-03-08T01:21:16;95923.72;;;7.46;100.00
61035;BME280;46916;40.564;-7.958;2024-03-08T01:23:16;95929.09;;;7.44;100.00
61035;BME280;46916;40.564;-7.958;2024-03-08T01:25:17;95925.69;;;7.44;100.00
61035;BME280;46916;40.564;-7.958;2024-03-08T01:27:17;95918.84;;;7.43;100.00
61035;BME280;46916;40.564;-7.958;2024-03-08T01:29:18;95907.56;;;7.42;100.00
61035;BME280;46916;40.564;-7.958;2024-03-08T01:31:18;95917.19;;;7.42;100.00
61035;BME280;46916;40.564;-7.958;2024-03-08T01:33:20;95920.59;;;7.42;100.00
61035;BME280;46916;40.564;-7.958;2024-03-08T01:35:22;95926.78;;;7.41;100.00
61035;BME280;46916;40.564;-7.958;2024-03-08T01:37:23;95922.69;;;7.39;100.00
61035;BME280;46916;40.564;-7.958;2024-03-08T01:39:24;95919.41;;;7.37;100.00
61035;BME280;46916;40.564;-7.958;2024-03-08T01:41:24;95921.03;;;7.38;100.00
61035;BME280;46916;40.564;-7.958;2024-03-08T01:43:26;95900.19;;;7.38;100.00
61035;BME280;46916;40.564;-7.958;2024-03-08T01:45:28;95891.44;;;7.39;100.00
61035;BME280;46916;40.564;-7.958;2024-03-08T01:47:29;95899.84;;;7.33;100.00
61035;BME280;46916;40.564;-7.958;2024-03-08T01:49:30;95896.56;;;7.31;100.00
61035;BME280;46916;40.564;-7.958;2024-03-08T01:51:30;95892.47;;;7.28;100.00
61035;BME280;46916;40.564;-7.958;2024-03-08T01:53:32;95902.88;;;7.28;100.00
61035;BME280;46916;40.564;-7.958;2024-03-08T01:55:33;95902.88;;;7.28;100.00
61035;BME280;46916;40.564;-7.958;2024-03-08T01:57:36;95883.97;;;7.26;100.00
61035;BME280;46916;40.564;-7.958;2024-03-08T01:59:38;95879.72;;;7.25;100.00
61035;BME280;46916;40.564;-7.958;2024-03-08T02:01:39;95894.53;;;7.25;100.00
61035;BME280;46916;40.564;-7.958;2024-03-08T02:03:40;95887.69;;;7.24;100.00
61035;BME280;46916;40.564;-7.958;2024-03-08T02:05:40;95891.78;;;7.26;100.00
61035;BME280;46916;40.564;-7.958;2024-03-08T02:07:41;95895.22;;;7.27;100.00
61035;BME280;46916;40.564;-7.958;2024-03-08T02:09:44;95901.81;;;7.21;100.00
61035;BME280;46916;40.564;-7.958;2024-03-08T02:11:45;95906.06;;;7.22;100.00
61035;BME280;46916;40.564;-7.958;2024-03-08T02:13:46;95895.34;;;7.25;100.00
61035;BME280;46916;40.564;-7.958;2024-03-08T02:15:53;95884.81;;;7.27;100.00
61035;BME280;46916;40.564;-7.958;2024-03-08T02:17:54;95877.38;;;7.32;100.00
61035;BME280;46916;40.564;-7.958;2024-03-08T02:19:54;95873.50;;;7.36;100.00
61035;BME280;46916;40.564;-7.958;2024-03-08T02:21:55;95871.72;;;7.36;100.00
61035;BME280;46916;40.564;-7.958;2024-03-08T02:23:56;95874.84;;;7.40;100.00
61035;BME280;46916;40.564;-7.958;2024-03-08T02:25:57;95885.78;;;7.43;100.00
61035;BME280;46916;40.564;-7.958;2024-03-08T02:27:57;95886.00;;;7.50;100.00
61035;BME280;46916;40.564;-7.958;2024-03-08T02:29:58;95886.69;;;7.52;100.00
61035;BME280;46916;40.564;-7.958;2024-03-08T02:32:00;95883.63;;;7.57;100.00
61035;BME280;46916;40.564;-7.958;2024-03-08T02:34:00;95878.94;;;7.60;100.00
61035;BME280;46916;40.564;-7.958;2024-03-08T02:36:01;95886.47;;;7.63;100.00
61035;BME280;46916;40.564;-7.958;2024-03-08T02:38:02;95885.50;;;7.64;100.00
61035;BME280;46916;40.564;-7.958;2024-03-08T02:40:04;95884.34;;;7.67;100.00
61035;BME280;46916;40.564;-7.958;2024-03-08T02:42:05;95886.03;;;7.68;100.00
61035;BME280;46916;40.564;-7.958;2024-03-08T02:44:06;95887.50;;;7.70;100.00
61035;BME280;46916;40.564;-7.958;2024-03-08T02:46:07;95888.16;;;7.73;100.00
61035;BME280;46916;40.564;-7.958;2024-03-08T02:48:08;95877.94;;;7.79;100.00
61035;BME280;46916;40.564;-7.958;2024-03-08T02:50:08;95876.19;;;7.80;100.00
61035;BME280;46916;40.564;-7.958;2024-03-08T02:52:09;95870.44;;;7.76;100.00
61035;BME280;46916;40.564;-7.958;2024-03-08T02:54:10;95873.88;;;7.77;100.00
61035;BME280;46916;40.564;-7.958;2024-03-08T02:56:10;95876.03;;;7.81;100.00
61035;BME280;46916;40.564;-7.958;2024-03-08T02:58:13;95894.72;;;7.77;100.00
61035;BME280;46916;40.564;-7.958;2024-03-08T03:00:15;95888.25;;;7.81;100.00
61035;BME280;46916;40.564;-7.958;2024-03-08T03:02:16;95889.72;;;7.83;100.00
61035;BME280;46916;40.564;-7.958;2024-03-08T03:04:16;95887.56;;;7.79;100.00
61035;BME280;46916;40.564;-7.958;2024-03-08T03:06:17;95897.84;;;7.80;100.00
61035;BME280;46916;40.564;-7.958;2024-03-08T03:08:21;95886.97;;;7.85;100.00
61035;BME280;46916;40.564;-7.958;2024-03-08T03:10:22;95902.31;;;7.88;100.00
61035;BME280;46916;40.564;-7.958;2024-03-08T03:12:22;95895.44;;;7.87;100.00
61035;BME280;46916;40.564;-7.958;2024-03-08T03:14:23;95899.72;;;7.88;100.00
61035;BME280;46916;40.564;-7.958;2024-03-08T03:16:23;95886.53;;;7.89;100.00
61035;BME280;46916;40.564;-7.958;2024-03-08T03:18:24;95893.34;;;7.90;100.00
61035;BME280;46916;40.564;-7.958;2024-03-08T03:20:26;95894.84;;;7.93;100.00
61035;BME280;46916;40.564;-7.958;2024-03-08T03:22:32;95900.72;;;7.95;100.00
61035;BME280;46916;40.564;-7.958;2024-03-08T03:24:33;95910.22;;;7.96;100.00
61035;BME280;46916;40.564;-7.958;2024-03-08T03:26:33;95903.34;;;7.95;100.00
61035;BME280;46916;40.564;-7.958;2024-03-08T03:28:34;95914.44;;;7.97;100.00
61035;BME280;46916;40.564;-7.958;2024-03-08T03:30:34;95918.69;;;7.98;100.00
61035;BME280;46916;40.564;-7.958;2024-03-08T03:32:35;95920.03;;;8.02;100.00
61035;BME280;46916;40.564;-7.958;2024-03-08T03:34:47;95913.81;;;8.03;100.00
61035;BME280;46916;40.564;-7.958;2024-03-08T03:36:47;95914.81;;;8.02;100.00
61035;BME280;46916;40.564;-7.958;2024-03-08T03:38:49;95905.06;;;8.04;100.00
61035;BME280;46916;40.564;-7.958;2024-03-08T03:40:49;95905.41;;;8.09;100.00
61035;BME280;46916;40.564;-7.958;2024-03-08T03:42:52;95908.03;;;8.09;100.00
61035;BME280;46916;40.564;-7.958;2024-03-08T03:44:53;95919.44;;;8.08;100.00
61035;BME280;46916;40.564;-7.958;2024-03-08T03:46:53;95924.31;;;8.11;100.00
61035;BME280;46916;40.564;-7.958;2024-03-08T03:48:54;95918.28;;;8.11;100.00
61035;BME280;46916;40.564;-7.958;2024-03-08T03:50:55;95940.13;;;8.10;100.00
61035;BME280;46916;40.564;-7.958;2024-03-08T03:52:56;95940.28;;;8.08;100.00
61035;BME280;46916;40.564;-7.958;2024-03-08T03:54:56;95945.13;;;8.03;100.00
61035;BME280;46916;40.564;-7.958;2024-03-08T03:56:58;95960.09;;;8.01;100.00
61035;BME280;46916;40.564;-7.958;2024-03-08T03:58:58;95955.88;;;8.00;100.00
61035;BME280;46916;40.564;-7.958;2024-03-08T04:00:59;95955.03;;;8.00;100.00
61035;BME280;46916;40.564;-7.958;2024-03-08T04:02:59;95946.72;;;7.96;100.00
61035;BME280;46916;40.564;-7.958;2024-03-08T04:05:01;95928.59;;;7.94;100.00
61035;BME280;46916;40.564;-7.958;2024-03-08T04:07:02;95911.16;;;7.95;100.00
61035;BME280;46916;40.564;-7.958;2024-03-08T04:09:03;95938.19;;;7.94;100.00
61035;BME280;46916;40.564;-7.958;2024-03-08T04:11:04;95923.66;;;7.91;100.00
61035;BME280;46916;40.564;-7.958;2024-03-08T04:13:05;95948.25;;;7.89;100.00
61035;BME280;46916;40.564;-7.958;2024-03-08T04:15:05;95955.94;;;7.90;100.00
61035;BME280;46916;40.564;-7.958;2024-03-08T04:17:11;95959.50;;;7.89;100.00
61035;BME280;46916;40.564;-7.958;2024-03-08T04:19:12;95963.09;;;7.88;100.00
61035;BME280;46916;40.564;-7.958;2024-03-08T04:21:13;95963.09;;;7.88;100.00
61035;BME280;46916;40.564;-7.958;2024-03-08T04:23:14;95954.44;;;7.88;100.00
61035;BME280;46916;40.564;-7.958;2024-03-08T04:25:16;95941.41;;;7.88;100.00
61035;BME280;46916;40.564;-7.958;2024-03-08T04:27:16;95953.59;;;7.87;100.00
61035;BME280;46916;40.564;-7.958;2024-03-08T04:29:17;95945.94;;;7.86;100.00
61035;BME280;46916;40.564;-7.958;2024-03-08T04:31:17;95943.34;;;7.86;100.00
61035;BME280;46916;40.564;-7.958;2024-03-08T04:33:18;95948.25;;;7.89;100.00
61035;BME280;46916;40.564;-7.958;2024-03-08T04:35:18;95958.00;;;7.87;100.00
61035;BME280;46916;40.564;-7.958;2024-03-08T04:37:20;95956.22;;;7.87;100.00
61035;BME280;46916;40.564;-7.958;2024-03-08T04:39:24;95954.44;;;7.88;100.00
61035;BME280;46916;40.564;-7.958;2024-03-08T04:41:25;95959.66;;;7.88;100.00
61035;BME280;46916;40.564;-7.958;2024-03-08T04:43:25;95964.56;;;7.91;100.00
61035;BME280;46916;40.564;-7.958;2024-03-08T04:45:27;95978.56;;;7.90;100.00
61035;BME280;46916;40.564;-7.958;2024-03-08T04:47:28;95983.78;;;7.90;100.00
61035;BME280;46916;40.564;-7.958;2024-03-08T04:49:28;95974.69;;;7.94;100.00
61035;BME280;46916;40.564;-7.958;2024-03-08T04:51:29;95976.66;;;7.92;100.00
61035;BME280;46916;40.564;-7.958;2024-03-08T04:53:29;95975.81;;;7.91;100.00
61035;BME280;46916;40.564;-7.958;2024-03-08T04:55:32;95979.25;;;7.92;100.00
61035;BME280;46916;40.564;-7.958;2024-03-08T04:57:32;95999.13;;;7.93;100.00
61035;BME280;46916;40.564;-7.958;2024-03-08T04:59:33;95993.09;;;7.92;100.00
61035;BME280;46916;40.564;-7.958;2024-03-08T05:01:34;95999.94;;;7.93;100.00
61035;BME280;46916;40.564;-7.958;2024-03-08T05:03:36;96006.97;;;7.93;100.00
61035;BME280;46916;40.564;-7.958;2024-03-08T05:05:38;95999.94;;;7.93;100.00
61035;BME280;46916;40.564;-7.958;2024-03-08T05:07:39;96006.44;;;7.89;100.00
61035;BME280;46916;40.564;-7.958;2024-03-08T05:09:40;96003.00;;;7.89;100.00
61035;BME280;46916;40.564;-7.958;2024-03-08T05:11:45;96003.97;;;7.88;100.00
61035;BME280;46916;40.564;-7.958;2024-03-08T05:13:45;96007.69;;;7.85;100.00
61035;BME280;46916;40.564;-7.958;2024-03-08T05:15:49;96017.44;;;7.83;100.00
61035;BME280;46916;40.564;-7.958;2024-03-08T05:17:52;96005.53;;;7.81;100.00
61035;BME280;46916;40.564;-7.958;2024-03-08T05:19:53;96003.75;;;7.81;100.00
61035;BME280;46916;40.564;-7.958;2024-03-08T05:21:53;96012.66;;;7.79;100.00
61035;BME280;46916;40.564;-7.958;2024-03-08T05:23:54;96008.25;;;7.79;100.00
61035;BME280;46916;40.564;-7.958;2024-03-08T05:25:54;96011.72;;;7.80;100.00
61035;BME280;46916;40.564;-7.958;2024-03-08T05:27:56;96017.59;;;7.82;100.00
61035;BME280;46916;40.564;-7.958;2024-03-08T05:29:56;96010.06;;;7.79;100.00
61035;BME280;46916;40.564;-7.958;2024-03-08T05:31:57;96005.66;;;7.79;100.00
61035;BME280;46916;40.564;-7.958;2024-03-08T05:33:58;96011.03;;;7.78;100.00
61035;BME280;46916;40.564;-7.958;2024-03-08T05:35:58;96017.88;;;7.79;100.00
61035;BME280;46916;40.564;-7.958;2024-03-08T05:37:59;96013.63;;;7.78;100.00
61035;BME280;46916;40.564;-7.958;2024-03-08T05:40:00;96026.66;;;7.78;100.00
61035;BME280;46916;40.564;-7.958;2024-03-08T05:42:00;96025.41;;;7.82;100.00
61035;BME280;46916;40.564;-7.958;2024-03-08T05:44:01;96031.59;;;7.81;100.00
61035;BME280;46916;40.564;-7.958;2024-03-08T05:46:01;96027.47;;;7.78;100.00
61035;BME280;46916;40.564;-7.958;2024-03-08T05:48:05;96035.59;;;7.75;100.00
61035;BME280;46916;40.564;-7.958;2024-03-08T05:50:05;96037.38;;;7.75;100.00
61035;BME280;46916;40.564;-7.958;2024-03-08T05:52:08;96040.28;;;7.72;100.00
61035;BME280;46916;40.564;-7.958;2024-03-08T05:54:10;96039.44;;;7.71;100.00
61035;BME280;46916;40.564;-7.958;2024-03-08T05:56:11;96048.94;;;7.72;100.00
61035;BME280;46916;40.564;-7.958;2024-03-08T05:58:12;96059.47;;;7.70;100.00
61035;BME280;46916;40.564;-7.958;2024-03-08T06:00:12;96049.22;;;7.69;100.00
61035;BME280;46916;40.564;-7.958;2024-03-08T06:02:15;96047.72;;;7.66;100.00
61035;BME280;46916;40.564;-7.958;2024-03-08T06:04:19;96045.91;;;7.67;100.00
61035;BME280;46916;40.564;-7.958;2024-03-08T06:06:20;96038.78;;;7.69;100.00
61035;BME280;46916;40.564;-7.958;2024-03-08T06:08:21;96058.66;;;7.70;100.00
61035;BME280;46916;40.564;-7.958;2024-03-08T06:10:22;96065.66;;;7.69;100.00
61035;BME280;46916;40.564;-7.958;2024-03-08T06:12:23;96074.47;;;7.68;100.00
61035;BME280;46916;40.564;-7.958;2024-03-08T06:14:24;96083.91;;;7.69;100.00
61035;BME280;46916;40.564;-7.958;2024-03-08T06:16:25;96092.69;;;7.68;100.00
61035;BME280;46916;40.564;-7.958;2024-03-08T06:18:29;96080.50;;;7.69;100.00
61035;BME280;46916;40.564;-7.958;2024-03-08T06:20:29;96085.53;;;7.70;100.00
61035;BME280;46916;40.564;-7.958;2024-03-08T06:22:30;96081.16;;;7.71;100.00
61035;BME280;46916;40.564;-7.958;2024-03-08T06:24:31;96088.31;;;7.69;100.00
61035;BME280;46916;40.564;-7.958;2024-03-08T06:26:32;96089.28;;;7.68;100.00
61035;BME280;46916;40.564;-7.958;2024-03-08T06:28:32;96098.88;;;7.67;100.00
61035;BME280;46916;40.564;-7.958;2024-03-08T06:30:33;96102.44;;;7.66;100.00
61035;BME280;46916;40.564;-7.958;2024-03-08T06:32:34;96113.66;;;7.67;100.00
61035;BME280;46916;40.564;-7.958;2024-03-08T06:34:35;96124.53;;;7.62;100.00
61035;BME280;46916;40.564;-7.958;2024-03-08T06:36:36;96117.03;;;7.59;100.00
61035;BME280;46916;40.564;-7.958;2024-03-08T06:38:38;96114.81;;;7.55;100.00
61035;BME280;46916;40.564;-7.958;2024-03-08T06:40:42;96123.75;;;7.52;100.00
61035;BME280;46916;40.564;-7.958;2024-03-08T06:42:43;96127.63;;;7.48;100.00
61035;BME280;46916;40.564;-7.958;2024-03-08T06:44:43;96114.59;;;7.48;100.00
61035;BME280;46916;40.564;-7.958;2024-03-08T06:46:49;96120.47;;;7.50;100.00
61035;BME280;46916;40.564;-7.958;2024-03-08T06:48:50;96118.56;;;7.52;100.00
61035;BME280;46916;40.564;-7.958;2024-03-08T06:50:50;96116.22;;;7.49;100.00
61035;BME280;46916;40.564;-7.958;2024-03-08T06:52:51;96109.22;;;7.50;100.00
61035;BME280;46916;40.564;-7.958;2024-03-08T06:54:53;96103.88;;;7.51;100.00
61035;BME280;46916;40.564;-7.958;2024-03-08T06:56:54;96110.44;;;7.55;100.00
61035;BME280;46916;40.564;-7.958;2024-03-08T06:58:55;96113.72;;;7.57;100.00
61035;BME280;46916;40.564;-7.958;2024-03-08T07:00:55;96118.78;;;7.59;100.00
61035;BME280;46916;40.564;-7.958;2024-03-08T07:02:58;96120.28;;;7.61;100.00
61035;BME280;46916;40.564;-7.958;2024-03-08T07:05:02;96121.81;;;7.64;100.00
61035;BME280;46916;40.564;-7.958;2024-03-08T07:07:04;96126.84;;;7.65;100.00
61035;BME280;46916;40.564;-7.958;2024-03-08T07:09:05;96126.84;;;7.65;100.00
61035;BME280;46916;40.564;-7.958;2024-03-08T07:11:06;96128.66;;;7.65;100.00
61035;BME280;46916;40.564;-7.958;2024-03-08T07:13:07;96122.63;;;7.64;100.00
61035;BME280;46916;40.564;-7.958;2024-03-08T07:15:07;96125.50;;;7.61;100.00
61035;BME280;46916;40.564;-7.958;2024-03-08T07:17:08;96129.75;;;7.62;100.00
61035;BME280;46916;40.564;-7.958;2024-03-08T07:19:09;96141.94;;;7.62;100.00
61035;BME280;46916;40.564;-7.958;2024-03-08T07:21:09;96147.16;;;7.62;100.00
61035;BME280;46916;40.564;-7.958;2024-03-08T07:23:13;96149.50;;;7.65;100.00
61035;BME280;46916;40.564;-7.958;2024-03-08T07:25:34;96150.31;;;7.65;100.00
61035;BME280;46916;40.564;-7.958;2024-03-08T07:27:35;96146.34;;;7.61;100.00
61035;BME280;46916;40.564;-7.958;2024-03-08T07:29:36;96141.13;;;7.61;100.00
61035;BME280;46916;40.564;-7.958;2024-03-08T07:31:37;96136.91;;;7.60;100.00
61035;BME280;46916;40.564;-7.958;2024-03-08T07:33:37;96143.91;;;7.60;100.00
61035;BME280;46916;40.564;-7.958;2024-03-08T07:35:38;96149.78;;;7.62;100.00
61035;BME280;46916;40.564;-7.958;2024-03-08T07:37:39;96150.47;;;7.64;100.00
61035;BME280;46916;40.564;-7.958;2024-03-08T07:39:40;96149.94;;;7.60;100.00
61035;BME280;46916;40.564;-7.958;2024-03-08T07:41:40;96160.34;;;7.60;100.00
61035;BME280;46916;40.564;-7.958;2024-03-08T07:43:41;96156.78;;;7.61;100.00
61035;BME280;46916;40.564;-7.958;2024-03-08T07:45:41;96150.75;;;7.61;100.00
61035;BME280;46916;40.564;-7.958;2024-03-08T07:47:42;96156.09;;;7.59;100.00
61035;BME280;46916;40.564;-7.958;2024-03-08T07:49:42;96170.91;;;7.59;100.00
61035;BME280;46916;40.564;-7.958;2024-03-08T07:51:44;96167.63;;;7.57;100.00
61035;BME280;46916;40.564;-7.958;2024-03-08T07:53:44;96165.16;;;7.55;100.00
61035;BME280;46916;40.564;-7.958;2024-03-08T07:55:45;96174.63;;;7.56;100.00
61035;BME280;46916;40.564;-7.958;2024-03-08T07:57:45;96170.91;;;7.59;100.00
61035;BME280;46916;40.564;-7.958;2024-03-08T07:59:47;96165.56;;;7.60;100.00
61035;BME280;46916;40.564;-7.958;2024-03-08T08:01:48;96166.22;;;7.62;100.00
61035;BME280;46916;40.564;-7.958;2024-03-08T08:03:49;96170.19;;;7.66;100.00
61035;BME280;46916;40.564;-7.958;2024-03-08T08:05:49;96169.63;;;7.73;100.00
61035;BME280;46916;40.564;-7.958;2024-03-08T08:07:50;96164.13;;;7.76;100.00
61035;BME280;46916;40.564;-7.958;2024-03-08T08:09:52;96171.91;;;7.85;100.00
61035;BME280;46916;40.564;-7.958;2024-03-08T08:11:53;96180.09;;;8.00;100.00
61035;BME280;46916;40.564;-7.958;2024-03-08T08:13:53;96181.00;;;8.09;100.00
61035;BME280;46916;40.564;-7.958;2024-03-08T08:15:55;96182.94;;;8.07;100.00
61035;BME280;46916;40.564;-7.958;2024-03-08T08:17:57;96180.75;;;8.02;100.00
61035;BME280;46916;40.564;-7.958;2024-03-08T08:19:57;96178.75;;;7.96;100.00
61035;BME280;46916;40.564;-7.958;2024-03-08T08:21:58;96183.25;;;7.94;100.00
61035;BME280;46916;40.564;-7.958;2024-03-08T08:23:59;96184.06;;;8.04;100.00
61035;BME280;46916;40.564;-7.958;2024-03-08T08:26:00;96182.91;;;8.16;100.00
61035;BME280;46916;40.564;-7.958;2024-03-08T08:28:04;96184.53;;;8.17;100.00
61035;BME280;46916;40.564;-7.958;2024-03-08T08:30:04;96192.44;;;8.26;100.00
61035;BME280;46916;40.564;-7.958;2024-03-08T08:32:08;96192.94;;;8.39;100.00
61035;BME280;46916;40.564;-7.958;2024-03-08T08:34:09;96196.09;;;8.60;100.00
61035;BME280;46916;40.564;-7.958;2024-03-08T08:36:11;96192.63;;;8.87;100.00
61035;BME280;46916;40.564;-7.958;2024-03-08T08:38:12;96197.59;;;9.16;100.00
61035;BME280;46916;40.564;-7.958;2024-03-08T08:40:13;96197.72;;;9.33;100.00
61035;BME280;46916;40.564;-7.958;2024-03-08T08:42:17;96191.53;;;9.34;100.00
61035;BME280;46916;40.564;-7.958;2024-03-08T08:44:18;96208.81;;;9.53;100.00
61035;BME280;46916;40.564;-7.958;2024-03-08T08:46:19;96202.97;;;9.85;100.00
61035;BME280;46916;40.564;-7.958;2024-03-08T08:48:20;96197.41;;;10.14;100.00
61035;BME280;46916;40.564;-7.958;2024-03-08T08:50:20;96204.91;;;10.43;100.00
61035;BME280;46916;40.564;-7.958;2024-03-08T08:52:23;96200.06;;;10.64;100.00
61035;BME280;46916;40.564;-7.958;2024-03-08T08:54:23;96206.28;;;10.72;100.00
61035;BME280;46916;40.564;-7.958;2024-03-08T08:56:25;96210.06;;;10.77;100.00
61035;BME280;46916;40.564;-7.958;2024-03-08T08:58:26;96216.31;;;10.84;100.00
61035;BME280;46916;40.564;-7.958;2024-03-08T09:00:28;96204.38;;;10.98;100.00
61035;BME280;46916;40.564;-7.958;2024-03-08T09:02:31;96217.66;;;11.21;100.00
61035;BME280;46916;40.564;-7.958;2024-03-08T09:04:31;96203.09;;;11.35;99.83
61035;BME280;46916;40.564;-7.958;2024-03-08T09:06:32;96205.34;;;11.54;99.58
61035;BME280;46916;40.564;-7.958;2024-03-08T09:08:33;96208.31;;;11.76;98.60
61035;BME280;46916;40.564;-7.958;2024-03-08T09:10:35;96208.31;;;11.84;96.26
61035;BME280;46916;40.564;-7.958;2024-03-08T09:12:35;96208.13;;;11.85;95.85
61035;BME280;46916;40.564;-7.958;2024-03-08T09:14:36;96210.56;;;11.95;94.19
61035;BME280;46916;40.564;-7.958;2024-03-08T09:16:36;96205.31;;;11.95;92.45
61035;BME280;46916;40.564;-7.958;2024-03-08T09:18:37;96211.56;;;11.94;91.88
61035;BME280;46916;40.564;-7.958;2024-03-08T09:20:37;96212.22;;;12.04;93.06
61035;BME280;46916;40.564;-7.958;2024-03-08T09:22:38;96210.50;;;12.20;92.20
61035;BME280;46916;40.564;-7.958;2024-03-08T09:24:39;96207.50;;;12.31;90.46
61035;BME280;46916;40.564;-7.958;2024-03-08T09:26:40;96211.63;;;12.25;91.44
61035;BME280;46916;40.564;-7.958;2024-03-08T09:28:43;96212.81;;;12.14;91.91
61035;BME280;46916;40.564;-7.958;2024-03-08T09:30:43;96212.03;;;12.06;91.99
61035;BME280;46916;40.564;-7.958;2024-03-08T09:32:44;96210.41;;;12.05;92.17
61035;BME280;46916;40.564;-7.958;2024-03-08T09:34:45;96216.28;;;12.07;92.66
61035;BME280;46916;40.564;-7.958;2024-03-08T09:36:46;96206.81;;;11.98;92.96
61035;BME280;46916;40.564;-7.958;2024-03-08T09:38:46;96212.56;;;11.85;92.12
61035;BME280;46916;40.564;-7.958;2024-03-08T09:40:47;96222.25;;;11.68;90.98
61035;BME280;46916;40.564;-7.958;2024-03-08T09:42:48;96217.84;;;11.44;92.73
61035;BME280;46916;40.564;-7.958;2024-03-08T09:44:49;96225.69;;;11.28;94.27
61035;BME280;46916;40.564;-7.958;2024-03-08T09:46:49;96225.38;;;11.14;94.49
61035;BME280;46916;40.564;-7.958;2024-03-08T09:48:53;96225.69;;;11.03;95.77
61035;BME280;46916;40.564;-7.958;2024-03-08T09:50:55;96224.19;;;10.93;95.82
61035;BME280;46916;40.564;-7.958;2024-03-08T09:52:56;96221.53;;;10.84;95.47
61035;BME280;46916;40.564;-7.958;2024-03-08T09:55:00;96219.88;;;10.75;95.77
61035;BME280;46916;40.564;-7.958;2024-03-08T09:57:00;96213.97;;;10.65;96.73
61035;BME280;46916;40.564;-7.958;2024-03-08T09:59:04;96226.41;;;10.63;97.22
61035;BME280;46916;40.564;-7.958;2024-03-08T10:01:23;96227.22;;;10.63;98.15
61035;BME280;46916;40.564;-7.958;2024-03-08T10:03:23;96228.38;;;10.69;98.97
61035;BME280;46916;40.564;-7.958;2024-03-08T10:05:26;96227.25;;;10.72;99.56
61035;BME280;46916;40.564;-7.958;2024-03-08T10:07:27;96225.63;;;10.79;99.23
61035;BME280;46916;40.564;-7.958;2024-03-08T10:09:28;96207.13;;;10.88;98.88
61035;BME280;46916;40.564;-7.958;2024-03-08T10:11:29;96206.84;;;11.08;98.81
61035;BME280;46916;40.564;-7.958;2024-03-08T10:13:31;96204.88;;;11.26;98.17
61035;BME280;46916;40.564;-7.958;2024-03-08T10:15:32;96206.53;;;11.44;96.50
61035;BME280;46916;40.564;-7.958;2024-03-08T10:17:35;96198.47;;;11.61;96.89
61035;BME280;46916;40.564;-7.958;2024-03-08T10:19:36;96205.31;;;11.79;96.30
61035;BME280;46916;40.564;-7.958;2024-03-08T10:21:46;96207.97;;;11.87;96.09
61035;BME280;46916;40.564;-7.958;2024-03-08T10:23:47;96193.38;;;11.93;96.08
61035;BME280;46916;40.564;-7.958;2024-03-08T10:25:48;96187.63;;;11.97;96.31
61035;BME280;46916;40.564;-7.958;2024-03-08T10:27:49;96185.59;;;12.07;96.77
61035;BME280;46916;40.564;-7.958;2024-03-08T10:29:49;96183.28;;;12.21;96.04
61035;BME280;46916;40.564;-7.958;2024-03-08T10:31:52;96183.06;;;12.30;93.73
61035;BME280;46916;40.564;-7.958;2024-03-08T10:33:54;96186.47;;;12.39;93.88